createdAt,value
2019-02-27T00:00:55.504Z,100140.51
2019-02-27T00:03:24.350Z,100136.22
2019-02-27T00:05:53.222Z,100130.99
2019-02-27T00:08:22.011Z,100131.59
2019-02-27T00:10:50.802Z,100137.28
2019-02-27T00:13:19.660Z,100133.98
2019-02-27T00:15:48.818Z,100127.33
2019-02-27T00:18:17.702Z,100123.75
2019-02-27T00:20:46.479Z,100116.45
2019-02-27T00:23:15.253Z,100123.11
2019-02-27T00:25:44.058Z,100119.63
2019-02-27T00:28:12.831Z,100115.59
2019-02-27T00:30:41.615Z,100125.32
2019-02-27T00:33:10.987Z,100117.81
2019-02-27T00:35:39.754Z,100118.36
2019-02-27T00:38:08.553Z,100120.42
2019-02-27T00:40:39.372Z,100125.52
2019-02-27T00:43:07.949Z,100129.03
2019-02-27T00:45:39.699Z,100122.70
2019-02-27T00:48:07.369Z,100121.16
2019-02-27T00:50:38.948Z,100123.28
2019-02-27T00:53:06.883Z,100116.23
2019-02-27T00:55:38.572Z,100117.91
2019-02-27T00:58:06.376Z,100118.87
2019-02-27T01:00:39.080Z,100110.34
2019-02-27T01:03:06.134Z,100119.17
2019-02-27T01:05:35.010Z,100117.22
2019-02-27T01:08:03.948Z,100113.48
2019-02-27T01:10:32.900Z,100109.98
2019-02-27T01:13:01.777Z,100099.52
2019-02-27T01:15:30.717Z,100097.16
2019-02-27T01:17:59.514Z,100098.22
2019-02-27T01:20:28.363Z,100087.93
2019-02-27T01:22:57.240Z,100097.41
2019-02-27T01:25:26.125Z,100093.44
2019-02-27T01:27:54.913Z,100092.78
2019-02-27T01:30:24.461Z,100092.50
2019-02-27T01:32:53.844Z,100088.99
2019-02-27T01:35:22.625Z,100081.30
2019-02-27T01:37:51.505Z,100073.28
2019-02-27T01:40:20.346Z,100070.59
2019-02-27T01:42:49.278Z,100070.02
2019-02-27T01:45:21.125Z,100064.54
2019-02-27T01:47:48.969Z,100059.89
2019-02-27T01:50:35.603Z,100057.20
2019-02-27T01:53:07.403Z,100054.33
2019-02-27T01:55:35.794Z,100053.13
2019-02-27T01:58:09.214Z,100047.33
2019-02-27T02:00:36.032Z,100053.36
2019-02-27T02:03:05.095Z,100048.86
2019-02-27T02:05:34.057Z,100053.50
2019-02-27T02:08:03.395Z,100043.75
2019-02-27T02:10:32.281Z,100038.03
2019-02-27T02:13:16.936Z,100031.68
2019-02-27T02:16:00.906Z,100030.77
2019-02-27T02:18:56.648Z,100032.40
2019-02-27T02:22:02.925Z,100035.73
2019-02-27T02:24:51.917Z,100033.23
2019-02-27T02:28:02.194Z,100029.34
2019-02-27T02:30:49.820Z,100035.20
2019-02-27T02:33:41.167Z,100034.34
2019-02-27T02:36:38.738Z,100022.67
2019-02-27T02:39:38.217Z,100025.17
2019-02-27T02:42:43.180Z,100021.38
2019-02-27T02:45:33.081Z,100010.14
2019-02-27T02:48:57.469Z,100017.73
2019-02-27T02:51:57.830Z,100017.97
2019-02-27T02:55:15.621Z,100011.79
2019-02-27T02:57:56.291Z,100017.92
2019-02-27T03:00:39.233Z,100014.41
2019-02-27T03:03:20.207Z,100008.59
2019-02-27T03:06:22.346Z,100001.16
2019-02-27T03:09:12.319Z,100002.61
2019-02-27T03:11:56.252Z,100001.83
2019-02-27T03:14:54.567Z,100001.07
2019-02-27T03:17:55.166Z,100000.55
2019-02-27T03:21:14.057Z,100000.45
2019-02-27T03:23:58.936Z,100001.22
2019-02-27T03:26:40.840Z,99998.19
2019-02-27T03:29:35.153Z,99990.66
2019-02-27T03:32:24.436Z,99992.33
2019-02-27T03:35:39.538Z,99987.92
2019-02-27T03:38:44.510Z,99994.11
2019-02-27T03:42:04.468Z,99991.63
2019-02-27T03:45:08.710Z,99991.63
2019-02-27T03:48:15.953Z,99987.06
2019-02-27T03:51:01.007Z,99991.28
2019-02-27T03:53:43.208Z,99991.28
2019-02-27T03:56:50.577Z,99995.17
2019-02-27T03:59:54.837Z,99988.88
2019-02-27T04:02:46.173Z,99983.74
2019-02-27T04:05:52.364Z,99977.16
2019-02-27T04:08:53.286Z,99979.23
2019-02-27T04:11:22.095Z,99987.16
2019-02-27T04:13:50.987Z,99984.65
2019-02-27T04:16:20.009Z,99980.86
2019-02-27T04:18:49.387Z,99980.84
2019-02-27T04:21:25.069Z,99979.13
2019-02-27T04:23:49.499Z,99976.98
2019-02-27T04:26:19.395Z,99979.53
2019-02-27T04:28:48.279Z,99984.09
2019-02-27T04:31:17.066Z,99981.47
2019-02-27T04:33:45.915Z,99974.34
2019-02-27T04:36:14.785Z,99969.92
2019-02-27T04:38:43.582Z,99972.69
2019-02-27T04:41:12.507Z,99966.80
2019-02-27T04:43:41.283Z,99963.01
2019-02-27T04:46:10.225Z,99961.14
2019-02-27T04:48:39.072Z,99960.42
2019-02-27T04:51:07.884Z,99965.84
2019-02-27T04:53:36.659Z,99960.98
2019-02-27T04:56:05.536Z,99968.80
2019-02-27T04:58:34.354Z,99971.09
2019-02-27T05:01:03.165Z,99971.95
2019-02-27T05:03:31.946Z,99966.39
2019-02-27T05:06:00.755Z,99962.55
2019-02-27T05:08:29.529Z,99968.52
2019-02-27T05:10:58.350Z,99971.36
2019-02-27T05:13:27.140Z,99972.52
2019-02-27T05:15:56.154Z,99977.14
2019-02-27T05:18:29.299Z,99977.84
2019-02-27T05:20:55.681Z,99977.10
2019-02-27T05:23:24.464Z,99973.88
2019-02-27T05:25:53.330Z,99973.91
2019-02-27T05:28:22.109Z,99982.45
2019-02-27T05:30:51.327Z,99975.61
2019-02-27T05:33:20.186Z,99978.13
2019-02-27T05:35:49.065Z,99982.17
2019-02-27T05:38:17.831Z,99969.30
2019-02-27T05:40:46.697Z,99972.67
2019-02-27T05:43:15.492Z,99968.77
2019-02-27T05:45:44.256Z,99969.30
2019-02-27T05:48:13.020Z,99976.59
2019-02-27T05:50:41.819Z,99968.05
2019-02-27T05:53:10.698Z,99978.05
2019-02-27T05:55:39.801Z,99975.89
2019-02-27T05:58:08.606Z,99968.09
2019-02-27T06:00:37.446Z,99969.42
2019-02-27T06:03:06.246Z,99973.70
2019-02-27T06:05:35.996Z,99978.44
2019-02-27T06:08:05.402Z,99980.17
2019-02-27T06:10:34.268Z,99975.86
2019-02-27T06:13:03.140Z,99964.83
2019-02-27T06:15:32.070Z,99973.77
2019-02-27T06:18:00.890Z,99973.77
2019-02-27T06:20:29.818Z,99972.82
2019-02-27T06:22:58.578Z,99967.48
2019-02-27T06:25:27.355Z,99963.42
2019-02-27T06:27:56.142Z,99963.17
2019-02-27T06:30:24.988Z,99967.70
2019-02-27T06:32:53.797Z,99966.78
2019-02-27T06:35:23.223Z,99963.41
2019-02-27T06:37:52.033Z,99960.08
2019-02-27T06:40:20.942Z,99967.06
2019-02-27T06:42:53.541Z,99963.53
2019-02-27T06:45:20.241Z,99965.53
2019-02-27T06:47:49.193Z,99959.76
2019-02-27T06:50:18.041Z,99956.95
2019-02-27T06:52:46.832Z,99962.39
2019-02-27T06:55:15.785Z,99955.80
2019-02-27T06:57:44.656Z,99962.86
2019-02-27T07:00:16.069Z,99967.21
2019-02-27T07:02:44.878Z,99963.00
2019-02-27T07:05:14.166Z,99963.05
2019-02-27T07:07:43.042Z,99964.50
2019-02-27T07:10:13.465Z,99963.04
2019-02-27T07:12:42.351Z,99956.43
2019-02-27T07:15:13.899Z,99949.41
2019-02-27T07:17:42.789Z,99954.51
2019-02-27T07:20:12.317Z,99955.19
2019-02-27T07:22:45.641Z,99952.40
2019-02-27T07:25:12.473Z,99948.20
2019-02-27T07:27:41.340Z,99938.02
2019-02-27T07:30:13.548Z,99937.00
2019-02-27T07:32:42.383Z,99937.66
2019-02-27T07:35:11.361Z,99936.20
2019-02-27T07:37:40.307Z,99932.59
2019-02-27T07:40:11.231Z,99944.88
2019-02-27T07:42:40.098Z,99940.77
2019-02-27T07:45:11.331Z,99939.20
2019-02-27T07:47:40.038Z,99939.03
2019-02-27T07:50:10.211Z,99930.53
2019-02-27T07:52:39.016Z,99935.83
2019-02-27T07:55:20.981Z,99932.83
2019-02-27T07:57:38.818Z,99932.05
2019-02-27T08:00:14.739Z,99926.38
2019-02-27T08:02:41.181Z,99930.89
2019-02-27T08:05:10.283Z,99924.92
2019-02-27T08:07:39.325Z,99926.72
2019-02-27T08:10:13.867Z,99925.52
2019-02-27T08:12:42.705Z,99921.34
2019-02-27T08:15:13.654Z,99922.48
2019-02-27T08:17:42.654Z,99922.12
2019-02-27T08:20:11.900Z,99927.97
2019-02-27T08:22:40.716Z,99925.47
2019-02-27T08:25:11.903Z,99926.72
2019-02-27T08:27:43.765Z,99920.42
2019-02-27T08:30:17.145Z,99914.34
2019-02-27T08:32:46.174Z,99916.89
2019-02-27T08:35:16.627Z,99916.73
2019-02-27T08:37:45.739Z,99914.88
2019-02-27T08:40:14.663Z,99906.26
2019-02-27T08:42:43.733Z,99895.22
2019-02-27T08:45:19.861Z,99896.30
2019-02-27T08:47:44.433Z,99897.95
2019-02-27T08:50:14.864Z,99887.16
2019-02-27T08:52:44.548Z,99886.81
2019-02-27T08:55:19.913Z,99887.94
2019-02-27T08:57:45.161Z,99881.78
2019-02-27T09:00:17.287Z,99873.45
2019-02-27T09:02:46.323Z,99864.41
2019-02-27T09:05:19.763Z,99861.02
2019-02-27T09:07:45.949Z,99859.97
2019-02-27T09:10:15.486Z,99862.78
2019-02-27T09:12:45.422Z,99854.80
2019-02-27T09:15:15.183Z,99862.77
2019-02-27T09:17:44.160Z,99860.30
2019-02-27T09:20:14.169Z,99860.03
2019-02-27T09:22:42.985Z,99853.81
2019-02-27T09:25:12.276Z,99861.80
2019-02-27T09:27:41.142Z,99856.41
2019-02-27T09:30:11.946Z,99852.42
2019-02-27T09:32:43.331Z,99853.26
2019-02-27T09:35:11.597Z,99850.66
2019-02-27T09:37:40.556Z,99848.73
2019-02-27T09:40:12.108Z,99849.50
2019-02-27T09:42:40.942Z,99847.86
2019-02-27T09:45:27.008Z,99837.70
2019-02-27T09:47:59.536Z,99831.34
2019-02-27T09:50:35.207Z,99830.36
2019-02-27T09:53:04.559Z,99821.66
2019-02-27T09:55:33.468Z,99811.53
2019-02-27T09:58:02.526Z,99813.41
2019-02-27T10:00:46.075Z,99813.76
2019-02-27T10:03:19.843Z,99818.14
2019-02-27T10:05:46.005Z,99820.02
2019-02-27T10:08:14.943Z,99808.44
2019-02-27T10:10:45.851Z,99808.41
2019-02-27T10:13:14.529Z,99800.19
2019-02-27T10:15:43.395Z,99796.91
2019-02-27T10:18:12.356Z,99793.80
2019-02-27T10:20:41.233Z,99792.61
2019-02-27T10:23:10.098Z,99789.57
2019-02-27T10:25:43.207Z,99782.92
2019-02-27T10:28:10.726Z,99780.97
2019-02-27T10:30:39.669Z,99778.92
2019-02-27T10:33:11.162Z,99774.23
2019-02-27T10:35:39.183Z,99771.95
2019-02-27T10:38:08.032Z,99764.69
2019-02-27T10:40:36.829Z,99760.84
2019-02-27T10:43:05.744Z,99758.97
2019-02-27T10:45:34.520Z,99748.27
2019-02-27T10:48:03.474Z,99745.25
2019-02-27T10:50:32.255Z,99742.14
2019-02-27T10:53:01.991Z,99731.38
2019-02-27T10:55:30.794Z,99719.05
2019-02-27T10:57:59.578Z,99716.60
2019-02-27T11:00:29.729Z,99720.58
2019-02-27T11:02:59.169Z,99715.02
2019-02-27T11:05:29.118Z,99716.56
2019-02-27T11:07:58.043Z,99712.95
2019-02-27T11:10:26.863Z,99704.11
2019-02-27T11:12:55.649Z,99702.30
2019-02-27T11:15:24.517Z,99690.25
2019-02-27T11:17:53.498Z,99696.61
2019-02-27T11:20:24.581Z,99688.45
2019-02-27T11:22:53.095Z,99686.16
2019-02-27T11:25:23.213Z,99684.39
2019-02-27T11:27:52.019Z,99685.64
2019-02-27T11:30:23.164Z,99686.36
2019-02-27T11:32:56.728Z,99672.90
2019-02-27T11:35:25.186Z,99671.77
2019-02-27T11:37:53.283Z,99671.92
2019-02-27T11:40:23.177Z,99663.30
2019-02-27T11:42:52.235Z,99652.28
2019-02-27T11:45:24.561Z,99652.89
2019-02-27T11:47:52.110Z,99651.69
2019-02-27T11:50:21.329Z,99649.95
2019-02-27T11:52:50.575Z,99640.32
2019-02-27T11:55:19.551Z,99636.52
2019-02-27T11:57:48.498Z,99629.13
2019-02-27T12:00:24.976Z,99623.67
2019-02-27T12:02:53.765Z,99616.92
2019-02-27T12:05:22.690Z,99615.25
2019-02-27T12:07:51.929Z,99613.31
2019-02-27T12:10:21.985Z,99605.63
2019-02-27T12:12:50.844Z,99610.03
2019-02-27T12:15:20.266Z,99604.95
2019-02-27T12:17:49.396Z,99606.28
2019-02-27T12:20:19.599Z,99601.86
2019-02-27T12:22:48.541Z,99602.55
2019-02-27T12:25:17.705Z,99595.70
2019-02-27T12:27:49.645Z,99599.41
2019-02-27T12:30:18.755Z,99576.70
2019-02-27T12:32:47.802Z,99576.70
2019-02-27T12:35:19.204Z,99590.53
2019-02-27T12:37:48.055Z,99582.70
2019-02-27T12:40:18.267Z,99578.29
2019-02-27T12:42:47.193Z,99572.67
2019-02-27T12:45:17.698Z,99568.14
2019-02-27T12:47:46.543Z,99562.04
2019-02-27T12:50:17.436Z,99561.16
2019-02-27T12:52:48.074Z,99559.42
2019-02-27T12:55:17.735Z,99557.03
2019-02-27T12:57:49.554Z,99545.28
2019-02-27T13:00:23.004Z,99552.56
2019-02-27T13:02:51.946Z,99538.55
2019-02-27T13:05:21.064Z,99534.34
2019-02-27T13:07:49.993Z,99529.83
2019-02-27T13:10:20.137Z,99524.66
2019-02-27T13:12:51.944Z,99518.70
2019-02-27T13:15:20.907Z,99518.14
2019-02-27T13:17:49.855Z,99514.86
2019-02-27T13:20:20.763Z,99515.33
2019-02-27T13:22:49.628Z,99507.84
2019-02-27T13:25:21.371Z,99502.13
2019-02-27T13:27:49.368Z,99499.72
2019-02-27T13:30:19.250Z,99493.86
2019-02-27T13:32:48.102Z,99488.92
2019-02-27T13:35:17.249Z,99484.53
2019-02-27T13:37:46.190Z,99480.54
2019-02-27T13:40:16.397Z,99479.45
2019-02-27T13:42:45.280Z,99480.30
2019-02-27T13:45:16.491Z,99476.34
2019-02-27T13:47:45.461Z,99468.36
2019-02-27T13:50:16.719Z,99466.98
2019-02-27T13:52:49.625Z,99467.67
2019-02-27T13:55:16.699Z,99463.72
2019-02-27T13:57:45.653Z,99465.70
2019-02-27T14:00:21.023Z,99458.17
2019-02-27T14:02:50.544Z,99457.66
2019-02-27T14:05:19.796Z,99447.00
2019-02-27T14:07:48.934Z,99448.56
2019-02-27T14:10:20.605Z,99451.03
2019-02-27T14:12:48.911Z,99452.78
2019-02-27T14:15:18.090Z,99442.95
2019-02-27T14:17:47.044Z,99439.73
2019-02-27T14:20:17.694Z,99435.64
2019-02-27T14:22:46.822Z,99435.44
2019-02-27T14:25:17.842Z,99432.91
2019-02-27T14:27:47.433Z,99436.48
2019-02-27T14:30:21.714Z,99425.34
2019-02-27T14:32:50.572Z,99426.97
2019-02-27T14:35:19.440Z,99426.02
2019-02-27T14:37:50.025Z,99426.20
2019-02-27T14:40:19.865Z,99422.48
2019-02-27T14:42:54.024Z,99422.56
2019-02-27T14:45:20.948Z,99419.84
2019-02-27T14:47:49.903Z,99425.28
2019-02-27T14:50:20.491Z,99432.09
2019-02-27T14:52:50.078Z,99422.16
2019-02-27T14:55:19.258Z,99424.14
2019-02-27T14:57:51.068Z,99421.31
2019-02-27T15:00:24.612Z,99416.20
2019-02-27T15:02:55.713Z,99415.36
2019-02-27T15:05:24.127Z,99414.16
2019-02-27T15:07:54.853Z,99407.64
2019-02-27T15:10:24.223Z,99406.34
2019-02-27T15:12:55.091Z,99403.67
2019-02-27T15:15:25.730Z,99403.67
2019-02-27T15:17:54.782Z,99394.23
2019-02-27T15:20:24.920Z,99395.14
2019-02-27T15:22:53.800Z,99397.58
2019-02-27T15:25:22.839Z,99390.50
2019-02-27T15:27:51.706Z,99386.31
2019-02-27T15:30:22.306Z,99382.88
2019-02-27T15:32:51.226Z,99383.39
2019-02-27T15:35:21.884Z,99381.67
2019-02-27T15:37:51.084Z,99372.94
2019-02-27T15:40:21.421Z,99370.86
2019-02-27T15:42:50.367Z,99369.30
2019-02-27T15:45:20.122Z,99360.98
2019-02-27T15:47:50.065Z,99354.88
2019-02-27T15:50:22.948Z,99354.52
2019-02-27T15:52:50.872Z,99350.73
2019-02-27T15:55:19.748Z,99344.68
2019-02-27T15:57:52.037Z,99347.77
2019-02-27T16:00:22.264Z,99342.21
2019-02-27T16:02:51.174Z,99341.57
2019-02-27T16:05:20.217Z,99337.66
2019-02-27T16:07:49.781Z,99331.11
2019-02-27T16:10:20.263Z,99332.44
2019-02-27T16:12:49.370Z,99333.56
2019-02-27T16:15:18.612Z,99331.70
2019-02-27T16:17:47.560Z,99335.06
2019-02-27T16:20:17.313Z,99335.77
2019-02-27T16:22:46.209Z,99335.45
2019-02-27T16:25:20.230Z,99335.12
2019-02-27T16:27:49.044Z,99328.19
2019-02-27T16:30:23.214Z,99328.08
2019-02-27T16:32:52.296Z,99324.17
2019-02-27T16:35:21.238Z,99321.42
2019-02-27T16:37:56.253Z,99323.41
2019-02-27T16:40:21.750Z,99317.65
2019-02-27T16:42:50.610Z,99321.10
2019-02-27T16:45:21.788Z,99319.76
2019-02-27T16:47:50.679Z,99315.45
2019-02-27T16:50:24.768Z,99316.24
2019-02-27T16:52:51.957Z,99310.39
2019-02-27T16:55:22.093Z,99304.24
2019-02-27T16:57:51.053Z,99302.03
2019-02-27T17:00:22.228Z,99305.44
2019-02-27T17:02:51.251Z,99301.36
2019-02-27T17:05:20.137Z,99303.59
2019-02-27T17:07:49.062Z,99312.64
2019-02-27T17:10:20.421Z,99309.86
2019-02-27T17:12:49.391Z,99304.67
2019-02-27T17:15:18.331Z,99303.72
2019-02-27T17:17:47.245Z,99307.13
2019-02-27T17:20:17.263Z,99305.30
2019-02-27T17:22:46.119Z,99312.36
2019-02-27T17:25:15.114Z,99311.14
2019-02-27T17:27:44.063Z,99301.56
2019-02-27T17:30:21.675Z,99303.92
2019-02-27T17:32:50.530Z,99298.59
2019-02-27T17:35:20.487Z,99294.95
2019-02-27T17:37:50.255Z,99298.41
2019-02-27T17:40:19.195Z,99299.87
2019-02-27T17:42:53.191Z,99295.20
2019-02-27T17:45:19.688Z,99295.92
2019-02-27T17:47:48.539Z,99294.65
2019-02-27T17:50:18.443Z,99300.84
2019-02-27T17:52:48.974Z,99303.22
2019-02-27T17:55:18.625Z,99296.34
2019-02-27T17:57:48.395Z,99299.41
2019-02-27T18:00:23.478Z,99298.94
2019-02-27T18:02:52.379Z,99299.08
2019-02-27T18:05:22.309Z,99297.18
2019-02-27T18:07:51.881Z,99291.58
2019-02-27T18:10:20.722Z,99293.15
2019-02-27T18:12:51.563Z,99292.27
2019-02-27T18:15:21.152Z,99296.72
2019-02-27T18:17:50.535Z,99291.64
2019-02-27T18:20:24.485Z,99288.03
2019-02-27T18:22:50.559Z,99286.78
2019-02-27T18:25:19.751Z,99284.36
2019-02-27T18:27:48.982Z,99282.97
2019-02-27T18:30:18.951Z,99286.02
2019-02-27T18:32:49.191Z,99283.73
2019-02-27T18:35:18.147Z,99275.94
2019-02-27T18:37:47.036Z,99280.44
2019-02-27T18:40:16.165Z,99281.44
2019-02-27T18:42:45.017Z,99284.66
2019-02-27T18:45:16.199Z,99283.85
2019-02-27T18:47:45.138Z,99289.58
2019-02-27T18:50:14.412Z,99288.69
2019-02-27T18:52:43.580Z,99287.47
2019-02-27T18:55:12.834Z,99281.33
2019-02-27T18:57:45.929Z,99281.28
2019-02-27T19:00:17.127Z,99275.87
2019-02-27T19:02:46.180Z,99276.05
2019-02-27T19:05:15.501Z,99273.05
2019-02-27T19:07:44.547Z,99277.50
2019-02-27T19:10:14.923Z,99278.58
2019-02-27T19:12:44.181Z,99279.11
2019-02-27T19:15:14.897Z,99274.19
2019-02-27T19:17:43.790Z,99277.52
2019-02-27T19:20:13.768Z,99274.08
2019-02-27T19:22:43.768Z,99271.06
2019-02-27T19:25:13.966Z,99264.44
2019-02-27T19:27:42.854Z,99262.88
2019-02-27T19:30:13.743Z,99262.80
2019-02-27T19:32:42.865Z,99265.41
2019-02-27T19:35:11.893Z,99263.30
2019-02-27T19:37:41.051Z,99259.27
2019-02-27T19:40:11.821Z,99258.73
2019-02-27T19:42:48.887Z,99250.89
2019-02-27T19:45:17.926Z,99255.66
2019-02-27T19:47:49.696Z,99248.69
2019-02-27T19:50:18.943Z,99240.55
2019-02-27T19:52:47.878Z,99236.16
2019-02-27T19:55:16.719Z,99227.09
2019-02-27T19:57:45.796Z,99239.80
2019-02-27T20:00:17.379Z,99238.55
2019-02-27T20:02:46.269Z,99240.05
2019-02-27T20:05:16.508Z,99241.71
2019-02-27T20:07:45.800Z,99243.22
2019-02-27T20:10:15.447Z,99251.61
2019-02-27T20:12:47.815Z,99245.98
2019-02-27T20:15:16.526Z,99247.63
2019-02-27T20:17:45.522Z,99241.29
2019-02-27T20:20:15.056Z,99244.44
2019-02-27T20:22:44.659Z,99240.31
2019-02-27T20:25:14.232Z,99240.11
2019-02-27T20:27:43.151Z,99237.28
2019-02-27T20:30:17.226Z,99234.22
2019-02-27T20:32:46.458Z,99230.59
2019-02-27T20:35:17.245Z,99218.95
2019-02-27T20:37:45.987Z,99218.88
2019-02-27T20:40:15.470Z,99221.27
2019-02-27T20:42:49.970Z,99221.34
2019-02-27T20:45:15.983Z,99221.58
2019-02-27T20:47:45.014Z,99215.45
2019-02-27T20:50:21.981Z,99214.05
2019-02-27T20:52:50.257Z,99208.08
2019-02-27T20:55:19.092Z,99209.20
2019-02-27T20:57:47.938Z,99208.71
2019-02-27T21:00:17.032Z,99209.02
2019-02-27T21:02:46.003Z,99206.13
2019-02-27T21:05:15.132Z,99195.23
2019-02-27T21:07:43.996Z,99203.31
2019-02-27T21:10:19.945Z,99196.30
2019-02-27T21:12:53.461Z,99191.66
2019-02-27T21:15:16.724Z,99195.27
2019-02-27T21:17:45.614Z,99191.83
2019-02-27T21:20:16.598Z,99191.59
2019-02-27T21:22:45.306Z,99186.24
2019-02-27T21:25:14.948Z,99195.16
2019-02-27T21:27:44.586Z,99192.64
2019-02-27T21:30:18.863Z,99189.78
2019-02-27T21:32:47.929Z,99187.67
2019-02-27T21:35:16.803Z,99186.19
2019-02-27T21:37:45.885Z,99190.81
2019-02-27T21:40:15.286Z,99179.17
2019-02-27T21:42:44.152Z,99184.38
2019-02-27T21:45:15.070Z,99179.97
2019-02-27T21:47:43.981Z,99173.39
2019-02-27T21:50:14.795Z,99175.80
2019-02-27T21:52:43.639Z,99174.55
2019-02-27T21:55:13.651Z,99175.75
2019-02-27T21:57:43.219Z,99171.13
2019-02-27T22:02:41.247Z,99177.37
2019-02-27T22:05:10.579Z,99184.89
2019-02-27T22:07:39.514Z,99178.06
2019-02-27T22:10:10.158Z,99169.97
2019-02-27T22:12:39.029Z,99173.13
2019-02-27T22:15:13.424Z,99173.05
2019-02-27T22:17:42.285Z,99172.04
2019-02-27T22:20:11.177Z,99171.14
2019-02-27T22:22:41.558Z,99171.80
2019-02-27T22:25:10.739Z,99170.73
2019-02-27T22:27:39.658Z,99166.37
2019-02-27T22:30:10.863Z,99167.75
2019-02-27T22:32:39.651Z,99156.81
2019-02-27T22:35:08.714Z,99159.95
2019-02-27T22:37:37.517Z,99158.09
2019-02-27T22:40:08.231Z,99152.73
2019-02-27T22:42:37.020Z,99149.93
2019-02-27T22:45:06.838Z,99147.76
2019-02-27T22:47:35.702Z,99145.69
2019-02-27T22:50:06.945Z,99146.24
2019-02-27T22:52:35.539Z,99149.44
2019-02-27T22:55:07.367Z,99150.34
2019-02-27T22:57:35.354Z,99150.41
2019-02-27T23:00:08.132Z,99145.21
2019-02-27T23:02:37.480Z,99137.94
2019-02-27T23:05:07.476Z,99136.43
2019-02-27T23:07:36.321Z,99132.52
2019-02-27T23:10:05.300Z,99142.48
2019-02-27T23:12:34.176Z,99142.53
2019-02-27T23:15:03.133Z,99140.45
2019-02-27T23:17:32.547Z,99131.99
2019-02-27T23:20:01.465Z,99133.55
2019-02-27T23:22:30.447Z,99133.58
2019-02-27T23:24:59.403Z,99128.53
2019-02-27T23:27:28.216Z,99123.79
2019-02-27T23:29:57.228Z,99117.58
2019-02-27T23:32:28.672Z,99113.33
2019-02-27T23:34:56.653Z,99116.59
2019-02-27T23:37:29.264Z,99119.97
2019-02-27T23:39:56.038Z,99118.22
2019-02-27T23:42:27.921Z,99119.08
2019-02-27T23:44:55.505Z,99117.36
2019-02-27T23:47:24.286Z,99114.95
2019-02-27T23:49:53.114Z,99121.89
2019-02-27T23:52:22.387Z,99113.57
2019-02-27T23:54:52.037Z,99113.72
2019-02-27T23:57:23.655Z,99108.60
2019-02-27T23:59:51.380Z,99115.90
